sensor_id;sensor_type;location;lat;lon;timestamp;P1;durP1;ratioP1;P2;durP2;ratioP2
13425;SDS011;6785;57.918;12.530;2023-04-01T00:01:04;2.50;;;1.50;;
13425;SDS011;6785;57.918;12.530;2023-04-01T00:03:32;2.20;;;1.87;;
13425;SDS011;6785;57.918;12.530;2023-04-01T00:06:00;2.60;;;1.87;;
13425;SDS011;6785;57.918;12.530;2023-04-01T00:08:28;1.67;;;1.43;;
13425;SDS011;6785;57.918;12.530;2023-04-01T00:10:56;6.20;;;1.73;;
13425;SDS011;6785;57.918;12.530;2023-04-01T00:13:23;2.40;;;1.60;;
13425;SDS011;6785;57.918;12.530;2023-04-01T00:15:51;2.40;;;1.83;;
13425;SDS011;6785;57.918;12.530;2023-04-01T00:18:18;1.50;;;1.40;;
13425;SDS011;6785;57.918;12.530;2023-04-01T00:20:45;2.80;;;1.60;;
13425;SDS011;6785;57.918;12.530;2023-04-01T00:23:12;2.33;;;1.70;;
13425;SDS011;6785;57.918;12.530;2023-04-01T00:25:41;2.90;;;1.80;;
13425;SDS011;6785;57.918;12.530;2023-04-01T00:28:08;2.13;;;1.90;;
13425;SDS011;6785;57.918;12.530;2023-04-01T00:30:35;1.87;;;1.60;;
13425;SDS011;6785;57.918;12.530;2023-04-01T00:33:02;2.67;;;1.83;;
13425;SDS011;6785;57.918;12.530;2023-04-01T00:35:29;1.93;;;1.50;;
13425;SDS011;6785;57.918;12.530;2023-04-01T00:37:57;2.97;;;2.10;;
13425;SDS011;6785;57.918;12.530;2023-04-01T00:40:26;4.53;;;1.90;;
13425;SDS011;6785;57.918;12.530;2023-04-01T00:42:56;1.80;;;1.53;;
13425;SDS011;6785;57.918;12.530;2023-04-01T00:45:25;1.80;;;1.50;;
13425;SDS011;6785;57.918;12.530;2023-04-01T00:47:58;2.90;;;1.53;;
13425;SDS011;6785;57.918;12.530;2023-04-01T00:50:30;2.63;;;1.67;;
13425;SDS011;6785;57.918;12.530;2023-04-01T00:53:00;2.03;;;1.53;;
13425;SDS011;6785;57.918;12.530;2023-04-01T00:55:28;3.27;;;2.10;;
13425;SDS011;6785;57.918;12.530;2023-04-01T00:57:59;2.40;;;1.73;;
13425;SDS011;6785;57.918;12.530;2023-04-01T01:00:28;4.37;;;1.90;;
13425;SDS011;6785;57.918;12.530;2023-04-01T01:02:54;2.90;;;2.00;;
13425;SDS011;6785;57.918;12.530;2023-04-01T01:05:23;3.53;;;1.50;;
13425;SDS011;6785;57.918;12.530;2023-04-01T01:08:03;4.03;;;1.70;;
13425;SDS011;6785;57.918;12.530;2023-04-01T01:10:38;2.53;;;2.00;;
13425;SDS011;6785;57.918;12.530;2023-04-01T01:13:10;2.03;;;1.73;;
13425;SDS011;6785;57.918;12.530;2023-04-01T01:15:41;2.63;;;1.93;;
13425;SDS011;6785;57.918;12.530;2023-04-01T01:18:14;2.00;;;1.60;;
13425;SDS011;6785;57.918;12.530;2023-04-01T01:20:52;5.63;;;2.60;;
13425;SDS011;6785;57.918;12.530;2023-04-01T01:26:40;2.00;;;1.77;;
13425;SDS011;6785;57.918;12.530;2023-04-01T01:29:22;2.90;;;1.60;;
13425;SDS011;6785;57.918;12.530;2023-04-01T01:32:10;1.77;;;1.67;;
13425;SDS011;6785;57.918;12.530;2023-04-01T01:34:46;2.13;;;1.57;;
13425;SDS011;6785;57.918;12.530;2023-04-01T01:37:23;2.87;;;1.70;;
13425;SDS011;6785;57.918;12.530;2023-04-01T01:39:53;2.33;;;1.70;;
13425;SDS011;6785;57.918;12.530;2023-04-01T01:42:25;2.07;;;1.70;;
13425;SDS011;6785;57.918;12.530;2023-04-01T01:44:53;3.73;;;2.00;;
13425;SDS011;6785;57.918;12.530;2023-04-01T01:47:24;1.97;;;1.70;;
13425;SDS011;6785;57.918;12.530;2023-04-01T01:49:51;2.70;;;1.70;;
13425;SDS011;6785;57.918;12.530;2023-04-01T01:52:21;2.50;;;1.67;;
13425;SDS011;6785;57.918;12.530;2023-04-01T01:54:50;2.10;;;1.87;;
13425;SDS011;6785;57.918;12.530;2023-04-01T01:57:17;2.57;;;1.67;;
13425;SDS011;6785;57.918;12.530;2023-04-01T01:59:46;3.57;;;1.80;;
13425;SDS011;6785;57.918;12.530;2023-04-01T02:02:14;2.70;;;1.80;;
13425;SDS011;6785;57.918;12.530;2023-04-01T02:04:43;2.47;;;2.00;;
13425;SDS011;6785;57.918;12.530;2023-04-01T02:07:12;3.47;;;1.50;;
13425;SDS011;6785;57.918;12.530;2023-04-01T02:09:45;3.30;;;2.20;;
13425;SDS011;6785;57.918;12.530;2023-04-01T02:12:13;2.10;;;1.60;;
13425;SDS011;6785;57.918;12.530;2023-04-01T02:14:43;1.87;;;1.70;;
13425;SDS011;6785;57.918;12.530;2023-04-01T02:17:16;4.53;;;1.63;;
13425;SDS011;6785;57.918;12.530;2023-04-01T02:19:46;1.83;;;1.67;;
13425;SDS011;6785;57.918;12.530;2023-04-01T02:22:16;2.00;;;1.70;;
13425;SDS011;6785;57.918;12.530;2023-04-01T02:24:49;2.87;;;1.97;;
13425;SDS011;6785;57.918;12.530;2023-04-01T02:27:18;2.73;;;1.93;;
13425;SDS011;6785;57.918;12.530;2023-04-01T02:29:46;2.70;;;2.03;;
13425;SDS011;6785;57.918;12.530;2023-04-01T02:32:13;1.50;;;1.40;;
13425;SDS011;6785;57.918;12.530;2023-04-01T02:34:42;3.00;;;1.97;;
13425;SDS011;6785;57.918;12.530;2023-04-01T02:37:10;3.80;;;1.80;;
13425;SDS011;6785;57.918;12.530;2023-04-01T02:39:37;3.13;;;1.83;;
13425;SDS011;6785;57.918;12.530;2023-04-01T02:42:05;1.97;;;1.70;;
13425;SDS011;6785;57.918;12.530;2023-04-01T02:44:32;2.07;;;1.77;;
13425;SDS011;6785;57.918;12.530;2023-04-01T02:46:59;2.07;;;1.80;;
13425;SDS011;6785;57.918;12.530;2023-04-01T02:49:26;2.23;;;1.80;;
13425;SDS011;6785;57.918;12.530;2023-04-01T02:51:52;1.67;;;1.57;;
13425;SDS011;6785;57.918;12.530;2023-04-01T02:54:19;5.20;;;1.70;;
13425;SDS011;6785;57.918;12.530;2023-04-01T02:56:46;2.87;;;1.90;;
13425;SDS011;6785;57.918;12.530;2023-04-01T02:59:14;3.77;;;1.90;;
13425;SDS011;6785;57.918;12.530;2023-04-01T03:01:41;4.20;;;2.13;;
13425;SDS011;6785;57.918;12.530;2023-04-01T03:04:07;1.93;;;1.80;;
13425;SDS011;6785;57.918;12.530;2023-04-01T03:06:34;3.63;;;1.73;;
13425;SDS011;6785;57.918;12.530;2023-04-01T03:09:01;3.33;;;2.07;;
13425;SDS011;6785;57.918;12.530;2023-04-01T03:11:28;1.73;;;1.60;;
13425;SDS011;6785;57.918;12.530;2023-04-01T03:13:55;3.83;;;2.00;;
13425;SDS011;6785;57.918;12.530;2023-04-01T03:16:23;3.23;;;2.03;;
13425;SDS011;6785;57.918;12.530;2023-04-01T03:18:50;3.07;;;1.80;;
13425;SDS011;6785;57.918;12.530;2023-04-01T03:21:18;2.73;;;1.57;;
13425;SDS011;6785;57.918;12.530;2023-04-01T03:23:47;2.30;;;1.70;;
13425;SDS011;6785;57.918;12.530;2023-04-01T03:26:14;2.27;;;1.67;;
13425;SDS011;6785;57.918;12.530;2023-04-01T03:28:41;2.83;;;2.10;;
13425;SDS011;6785;57.918;12.530;2023-04-01T03:31:08;3.27;;;1.63;;
13425;SDS011;6785;57.918;12.530;2023-04-01T03:33:36;2.73;;;1.90;;
13425;SDS011;6785;57.918;12.530;2023-04-01T03:36:03;6.03;;;2.00;;
13425;SDS011;6785;57.918;12.530;2023-04-01T03:38:31;3.97;;;1.97;;
13425;SDS011;6785;57.918;12.530;2023-04-01T03:40:58;4.27;;;2.10;;
13425;SDS011;6785;57.918;12.530;2023-04-01T03:43:25;2.43;;;1.83;;
13425;SDS011;6785;57.918;12.530;2023-04-01T03:45:52;2.53;;;2.10;;
13425;SDS011;6785;57.918;12.530;2023-04-01T03:48:19;2.60;;;1.97;;
13425;SDS011;6785;57.918;12.530;2023-04-01T03:50:47;3.17;;;2.10;;
13425;SDS011;6785;57.918;12.530;2023-04-01T03:53:14;2.30;;;1.67;;
13425;SDS011;6785;57.918;12.530;2023-04-01T03:55:41;2.53;;;1.80;;
13425;SDS011;6785;57.918;12.530;2023-04-01T03:58:08;2.10;;;1.90;;
13425;SDS011;6785;57.918;12.530;2023-04-01T04:00:35;2.30;;;2.00;;
13425;SDS011;6785;57.918;12.530;2023-04-01T04:03:02;2.03;;;1.83;;
13425;SDS011;6785;57.918;12.530;2023-04-01T04:05:28;4.33;;;2.07;;
13425;SDS011;6785;57.918;12.530;2023-04-01T04:07:57;4.63;;;2.10;;
13425;SDS011;6785;57.918;12.530;2023-04-01T04:10:24;4.70;;;2.20;;
13425;SDS011;6785;57.918;12.530;2023-04-01T04:12:51;2.43;;;2.00;;
13425;SDS011;6785;57.918;12.530;2023-04-01T04:15:18;2.37;;;1.67;;
13425;SDS011;6785;57.918;12.530;2023-04-01T04:17:45;3.30;;;1.90;;
13425;SDS011;6785;57.918;12.530;2023-04-01T04:20:12;3.63;;;1.63;;
13425;SDS011;6785;57.918;12.530;2023-04-01T04:22:39;2.53;;;2.20;;
13425;SDS011;6785;57.918;12.530;2023-04-01T04:25:07;1.93;;;1.70;;
13425;SDS011;6785;57.918;12.530;2023-04-01T04:27:34;2.63;;;2.20;;
13425;SDS011;6785;57.918;12.530;2023-04-01T04:30:02;2.20;;;1.73;;
13425;SDS011;6785;57.918;12.530;2023-04-01T04:32:29;2.53;;;1.90;;
13425;SDS011;6785;57.918;12.530;2023-04-01T04:34:56;2.27;;;1.73;;
13425;SDS011;6785;57.918;12.530;2023-04-01T04:37:23;2.77;;;2.27;;
13425;SDS011;6785;57.918;12.530;2023-04-01T04:39:50;7.33;;;2.37;;
13425;SDS011;6785;57.918;12.530;2023-04-01T04:42:19;2.90;;;1.80;;
13425;SDS011;6785;57.918;12.530;2023-04-01T04:44:45;2.53;;;1.83;;
13425;SDS011;6785;57.918;12.530;2023-04-01T04:47:12;2.83;;;2.00;;
13425;SDS011;6785;57.918;12.530;2023-04-01T04:49:39;2.27;;;2.07;;
13425;SDS011;6785;57.918;12.530;2023-04-01T04:52:06;3.33;;;2.17;;
13425;SDS011;6785;57.918;12.530;2023-04-01T04:54:32;3.27;;;1.80;;
13425;SDS011;6785;57.918;12.530;2023-04-01T04:56:59;3.20;;;2.10;;
13425;SDS011;6785;57.918;12.530;2023-04-01T04:59:27;3.17;;;1.90;;
13425;SDS011;6785;57.918;12.530;2023-04-01T05:01:54;2.20;;;1.87;;
13425;SDS011;6785;57.918;12.530;2023-04-01T05:04:20;2.00;;;1.80;;
13425;SDS011;6785;57.918;12.530;2023-04-01T05:06:47;2.77;;;2.00;;
13425;SDS011;6785;57.918;12.530;2023-04-01T05:09:14;3.97;;;2.37;;
13425;SDS011;6785;57.918;12.530;2023-04-01T05:11:41;5.10;;;1.90;;
13425;SDS011;6785;57.918;12.530;2023-04-01T05:14:11;3.93;;;2.20;;
13425;SDS011;6785;57.918;12.530;2023-04-01T05:16:40;2.67;;;2.10;;
13425;SDS011;6785;57.918;12.530;2023-04-01T05:19:07;2.33;;;2.13;;
13425;SDS011;6785;57.918;12.530;2023-04-01T05:21:33;2.13;;;1.70;;
13425;SDS011;6785;57.918;12.530;2023-04-01T05:24:00;2.10;;;1.90;;
13425;SDS011;6785;57.918;12.530;2023-04-01T05:26:27;3.23;;;1.80;;
13425;SDS011;6785;57.918;12.530;2023-04-01T05:28:54;2.13;;;1.80;;
13425;SDS011;6785;57.918;12.530;2023-04-01T05:31:20;2.70;;;1.73;;
13425;SDS011;6785;57.918;12.530;2023-04-01T05:33:50;2.20;;;1.60;;
13425;SDS011;6785;57.918;12.530;2023-04-01T05:36:17;4.43;;;1.80;;
13425;SDS011;6785;57.918;12.530;2023-04-01T05:38:43;2.83;;;1.90;;
13425;SDS011;6785;57.918;12.530;2023-04-01T05:41:12;2.03;;;1.87;;
13425;SDS011;6785;57.918;12.530;2023-04-01T05:43:39;2.17;;;1.80;;
13425;SDS011;6785;57.918;12.530;2023-04-01T05:46:06;2.27;;;1.70;;
13425;SDS011;6785;57.918;12.530;2023-04-01T05:48:34;1.77;;;1.60;;
13425;SDS011;6785;57.918;12.530;2023-04-01T05:51:02;1.70;;;1.60;;
13425;SDS011;6785;57.918;12.530;2023-04-01T05:53:30;2.20;;;2.00;;
13425;SDS011;6785;57.918;12.530;2023-04-01T05:55:56;2.50;;;2.00;;
13425;SDS011;6785;57.918;12.530;2023-04-01T05:58:27;3.03;;;1.60;;
13425;SDS011;6785;57.918;12.530;2023-04-01T06:00:59;2.53;;;1.70;;
13425;SDS011;6785;57.918;12.530;2023-04-01T06:03:27;3.00;;;1.50;;
13425;SDS011;6785;57.918;12.530;2023-04-01T06:05:53;1.80;;;1.70;;
13425;SDS011;6785;57.918;12.530;2023-04-01T06:08:21;2.43;;;1.70;;
13425;SDS011;6785;57.918;12.530;2023-04-01T06:10:51;1.70;;;1.60;;
13425;SDS011;6785;57.918;12.530;2023-04-01T06:13:28;5.40;;;2.10;;
13425;SDS011;6785;57.918;12.530;2023-04-01T06:16:07;2.40;;;1.50;;
13425;SDS011;6785;57.918;12.530;2023-04-01T06:18:55;3.47;;;1.77;;
13425;SDS011;6785;57.918;12.530;2023-04-01T06:24:51;2.07;;;1.83;;
13425;SDS011;6785;57.918;12.530;2023-04-01T06:27:36;2.93;;;1.83;;
13425;SDS011;6785;57.918;12.530;2023-04-01T06:30:22;3.70;;;1.80;;
13425;SDS011;6785;57.918;12.530;2023-04-01T06:33:00;1.57;;;1.47;;
13425;SDS011;6785;57.918;12.530;2023-04-01T06:35:51;2.17;;;1.60;;
13425;SDS011;6785;57.918;12.530;2023-04-01T06:42:00;1.40;;;1.30;;
13425;SDS011;6785;57.918;12.530;2023-04-01T06:44:46;2.87;;;1.70;;
13425;SDS011;6785;57.918;12.530;2023-04-01T06:47:23;2.43;;;1.50;;
13425;SDS011;6785;57.918;12.530;2023-04-01T06:50:02;1.53;;;1.40;;
13425;SDS011;6785;57.918;12.530;2023-04-01T06:52:35;1.70;;;1.53;;
13425;SDS011;6785;57.918;12.530;2023-04-01T06:55:21;1.60;;;1.40;;
13425;SDS011;6785;57.918;12.530;2023-04-01T06:57:55;1.90;;;1.67;;
13425;SDS011;6785;57.918;12.530;2023-04-01T07:00:27;1.83;;;1.60;;
13425;SDS011;6785;57.918;12.530;2023-04-01T07:02:59;1.50;;;1.40;;
13425;SDS011;6785;57.918;12.530;2023-04-01T07:05:31;2.30;;;1.77;;
13425;SDS011;6785;57.918;12.530;2023-04-01T07:07:59;1.90;;;1.70;;
13425;SDS011;6785;57.918;12.530;2023-04-01T07:10:32;2.40;;;1.60;;
13425;SDS011;6785;57.918;12.530;2023-04-01T07:13:04;1.60;;;1.50;;
13425;SDS011;6785;57.918;12.530;2023-04-01T07:15:36;2.63;;;1.53;;
13425;SDS011;6785;57.918;12.530;2023-04-01T07:18:07;3.40;;;1.53;;
13425;SDS011;6785;57.918;12.530;2023-04-01T07:20:41;2.87;;;1.33;;
13425;SDS011;6785;57.918;12.530;2023-04-01T07:23:10;1.50;;;1.37;;
13425;SDS011;6785;57.918;12.530;2023-04-01T07:25:47;1.50;;;1.40;;
13425;SDS011;6785;57.918;12.530;2023-04-01T07:28:19;1.60;;;1.43;;
13425;SDS011;6785;57.918;12.530;2023-04-01T07:30:51;2.13;;;1.57;;
13425;SDS011;6785;57.918;12.530;2023-04-01T07:33:26;2.13;;;1.27;;
13425;SDS011;6785;57.918;12.530;2023-04-01T07:36:00;1.50;;;1.40;;
13425;SDS011;6785;57.918;12.530;2023-04-01T07:38:35;1.77;;;1.53;;
13425;SDS011;6785;57.918;12.530;2023-04-01T07:41:09;1.80;;;1.60;;
13425;SDS011;6785;57.918;12.530;2023-04-01T07:43:52;3.67;;;1.30;;
13425;SDS011;6785;57.918;12.530;2023-04-01T07:46:31;2.77;;;1.40;;
13425;SDS011;6785;57.918;12.530;2023-04-01T07:49:21;2.47;;;1.40;;
13425;SDS011;6785;57.918;12.530;2023-04-01T07:51:54;1.13;;;1.03;;
13425;SDS011;6785;57.918;12.530;2023-04-01T07:54:26;1.57;;;1.40;;
13425;SDS011;6785;57.918;12.530;2023-04-01T07:57:01;1.50;;;1.40;;
13425;SDS011;6785;57.918;12.530;2023-04-01T07:59:33;1.87;;;1.57;;
13425;SDS011;6785;57.918;12.530;2023-04-01T08:02:09;5.20;;;1.33;;
13425;SDS011;6785;57.918;12.530;2023-04-01T08:04:51;3.00;;;1.50;;
13425;SDS011;6785;57.918;12.530;2023-04-01T08:07:27;1.97;;;1.37;;
13425;SDS011;6785;57.918;12.530;2023-04-01T08:10:02;1.20;;;1.10;;
13425;SDS011;6785;57.918;12.530;2023-04-01T08:12:36;1.27;;;1.17;;
13425;SDS011;6785;57.918;12.530;2023-04-01T08:15:17;2.40;;;1.30;;
13425;SDS011;6785;57.918;12.530;2023-04-01T08:17:54;1.30;;;1.20;;
13425;SDS011;6785;57.918;12.530;2023-04-01T08:20:32;1.63;;;1.20;;
13425;SDS011;6785;57.918;12.530;2023-04-01T08:23:04;1.27;;;1.17;;
13425;SDS011;6785;57.918;12.530;2023-04-01T08:25:37;0.90;;;0.90;;
13425;SDS011;6785;57.918;12.530;2023-04-01T08:28:09;2.03;;;1.20;;
13425;SDS011;6785;57.918;12.530;2023-04-01T08:30:43;1.40;;;1.30;;
13425;SDS011;6785;57.918;12.530;2023-04-01T08:33:15;1.27;;;1.17;;
13425;SDS011;6785;57.918;12.530;2023-04-01T08:35:46;1.97;;;1.00;;
13425;SDS011;6785;57.918;12.530;2023-04-01T08:38:19;1.20;;;1.10;;
13425;SDS011;6785;57.918;12.530;2023-04-01T08:40:57;1.57;;;1.07;;
13425;SDS011;6785;57.918;12.530;2023-04-01T08:43:39;1.30;;;1.20;;
13425;SDS011;6785;57.918;12.530;2023-04-01T08:46:28;3.67;;;1.07;;
13425;SDS011;6785;57.918;12.530;2023-04-01T08:49:22;1.87;;;1.20;;
13425;SDS011;6785;57.918;12.530;2023-04-01T08:52:09;1.20;;;1.10;;
13425;SDS011;6785;57.918;12.530;2023-04-01T08:54:54;3.80;;;1.27;;
13425;SDS011;6785;57.918;12.530;2023-04-01T08:58:08;1.43;;;1.33;;
13425;SDS011;6785;57.918;12.530;2023-04-01T09:01:09;1.07;;;1.00;;
13425;SDS011;6785;57.918;12.530;2023-04-01T09:06:40;1.73;;;1.10;;
13425;SDS011;6785;57.918;12.530;2023-04-01T09:09:37;1.20;;;1.10;;
13425;SDS011;6785;57.918;12.530;2023-04-01T09:18:20;2.40;;;1.67;;
13425;SDS011;6785;57.918;12.530;2023-04-01T09:21:04;1.50;;;1.40;;
13425;SDS011;6785;57.918;12.530;2023-04-01T09:27:01;3.13;;;1.40;;
13425;SDS011;6785;57.918;12.530;2023-04-01T09:29:34;1.27;;;1.17;;
13425;SDS011;6785;57.918;12.530;2023-04-01T09:32:14;1.57;;;1.40;;
13425;SDS011;6785;57.918;12.530;2023-04-01T09:35:10;1.23;;;1.10;;
13425;SDS011;6785;57.918;12.530;2023-04-01T09:37:53;1.20;;;1.10;;
13425;SDS011;6785;57.918;12.530;2023-04-01T09:40:31;2.17;;;1.17;;
13425;SDS011;6785;57.918;12.530;2023-04-01T09:43:22;1.53;;;1.20;;
13425;SDS011;6785;57.918;12.530;2023-04-01T09:46:04;1.37;;;1.20;;
13425;SDS011;6785;57.918;12.530;2023-04-01T09:48:45;0.90;;;0.90;;
13425;SDS011;6785;57.918;12.530;2023-04-01T09:51:32;1.57;;;1.10;;
13425;SDS011;6785;57.918;12.530;2023-04-01T09:54:11;1.67;;;1.10;;
13425;SDS011;6785;57.918;12.530;2023-04-01T09:56:55;1.40;;;1.30;;
13425;SDS011;6785;57.918;12.530;2023-04-01T10:09:32;1.07;;;1.00;;
13425;SDS011;6785;57.918;12.530;2023-04-01T10:12:29;2.07;;;1.00;;
13425;SDS011;6785;57.918;12.530;2023-04-01T10:15:27;1.43;;;1.20;;
13425;SDS011;6785;57.918;12.530;2023-04-01T10:18:13;3.00;;;1.30;;
13425;SDS011;6785;57.918;12.530;2023-04-01T10:24:10;3.30;;;1.47;;
13425;SDS011;6785;57.918;12.530;2023-04-01T10:27:30;1.80;;;1.27;;
13425;SDS011;6785;57.918;12.530;2023-04-01T10:33:26;1.43;;;1.10;;
13425;SDS011;6785;57.918;12.530;2023-04-01T10:45:53;1.20;;;1.03;;
13425;SDS011;6785;57.918;12.530;2023-04-01T10:48:55;2.40;;;1.50;;
13425;SDS011;6785;57.918;12.530;2023-04-01T10:51:58;2.17;;;1.40;;
13425;SDS011;6785;57.918;12.530;2023-04-01T10:54:46;1.37;;;1.10;;
13425;SDS011;6785;57.918;12.530;2023-04-01T10:57:20;2.30;;;1.30;;
13425;SDS011;6785;57.918;12.530;2023-04-01T11:00:13;1.20;;;1.10;;
13425;SDS011;6785;57.918;12.530;2023-04-01T11:12:42;1.27;;;1.10;;
13425;SDS011;6785;57.918;12.530;2023-04-01T11:15:37;1.33;;;1.20;;
13425;SDS011;6785;57.918;12.530;2023-04-01T11:21:46;1.30;;;1.20;;
13425;SDS011;6785;57.918;12.530;2023-04-01T11:24:29;1.20;;;1.03;;
13425;SDS011;6785;57.918;12.530;2023-04-01T11:27:25;1.83;;;1.40;;
13425;SDS011;6785;57.918;12.530;2023-04-01T11:30:10;1.70;;;1.50;;
13425;SDS011;6785;57.918;12.530;2023-04-01T11:38:36;1.70;;;1.10;;
13425;SDS011;6785;57.918;12.530;2023-04-01T11:44:02;1.43;;;1.27;;
13425;SDS011;6785;57.918;12.530;2023-04-01T11:46:39;2.27;;;1.10;;
13425;SDS011;6785;57.918;12.530;2023-04-01T11:49:23;1.10;;;1.00;;
13425;SDS011;6785;57.918;12.530;2023-04-01T11:52:01;5.23;;;2.90;;
13425;SDS011;6785;57.918;12.530;2023-04-01T11:54:43;7.83;;;4.40;;
13425;SDS011;6785;57.918;12.530;2023-04-01T11:57:39;3.83;;;2.50;;
13425;SDS011;6785;57.918;12.530;2023-04-01T12:06:11;1.40;;;1.30;;
13425;SDS011;6785;57.918;12.530;2023-04-01T12:08:44;12.73;;;6.50;;
13425;SDS011;6785;57.918;12.530;2023-04-01T12:13:49;9.07;;;4.47;;
13425;SDS011;6785;57.918;12.530;2023-04-01T12:16:26;9.30;;;4.13;;
13425;SDS011;6785;57.918;12.530;2023-04-01T12:19:04;5.77;;;3.37;;
13425;SDS011;6785;57.918;12.530;2023-04-01T12:21:41;1.73;;;1.23;;
13425;SDS011;6785;57.918;12.530;2023-04-01T12:27:16;1.47;;;0.80;;
13425;SDS011;6785;57.918;12.530;2023-04-01T12:30:02;2.37;;;0.90;;
13425;SDS011;6785;57.918;12.530;2023-04-01T12:32:53;1.90;;;0.93;;
13425;SDS011;6785;57.918;12.530;2023-04-01T12:35:30;4.80;;;1.20;;
13425;SDS011;6785;57.918;12.530;2023-04-01T12:38:07;0.90;;;0.80;;
13425;SDS011;6785;57.918;12.530;2023-04-01T12:40:51;1.00;;;1.00;;
13425;SDS011;6785;57.918;12.530;2023-04-01T12:43:42;0.93;;;0.80;;
13425;SDS011;6785;57.918;12.530;2023-04-01T12:46:32;2.07;;;1.10;;
13425;SDS011;6785;57.918;12.530;2023-04-01T12:49:20;0.87;;;0.87;;
13425;SDS011;6785;57.918;12.530;2023-04-01T12:52:04;1.90;;;1.03;;
13425;SDS011;6785;57.918;12.530;2023-04-01T12:54:44;0.80;;;0.80;;
13425;SDS011;6785;57.918;12.530;2023-04-01T12:57:34;6.23;;;1.37;;
13425;SDS011;6785;57.918;12.530;2023-04-01T13:00:30;2.67;;;1.00;;
13425;SDS011;6785;57.918;12.530;2023-04-01T13:03:14;0.83;;;0.83;;
13425;SDS011;6785;57.918;12.530;2023-04-01T13:06:00;1.03;;;0.83;;
13425;SDS011;6785;57.918;12.530;2023-04-01T13:08:46;0.60;;;0.60;;
13425;SDS011;6785;57.918;12.530;2023-04-01T13:13:59;0.70;;;0.70;;
13425;SDS011;6785;57.918;12.530;2023-04-01T13:16:42;0.63;;;0.63;;
13425;SDS011;6785;57.918;12.530;2023-04-01T13:19:16;0.83;;;0.83;;
13425;SDS011;6785;57.918;12.530;2023-04-01T13:21:50;1.17;;;1.00;;
13425;SDS011;6785;57.918;12.530;2023-04-01T13:24:31;0.93;;;0.90;;
13425;SDS011;6785;57.918;12.530;2023-04-01T13:27:13;1.47;;;1.07;;
13425;SDS011;6785;57.918;12.530;2023-04-01T13:29:57;1.37;;;1.00;;
13425;SDS011;6785;57.918;12.530;2023-04-01T13:32:32;3.03;;;1.00;;
13425;SDS011;6785;57.918;12.530;2023-04-01T13:37:54;1.23;;;0.80;;
13425;SDS011;6785;57.918;12.530;2023-04-01T13:40:43;0.70;;;0.70;;
13425;SDS011;6785;57.918;12.530;2023-04-01T13:43:18;1.43;;;0.93;;
13425;SDS011;6785;57.918;12.530;2023-04-01T13:48:46;1.20;;;1.10;;
13425;SDS011;6785;57.918;12.530;2023-04-01T13:51:39;1.20;;;1.10;;
13425;SDS011;6785;57.918;12.530;2023-04-01T13:54:46;0.70;;;0.67;;
13425;SDS011;6785;57.918;12.530;2023-04-01T13:57:52;2.80;;;1.13;;
13425;SDS011;6785;57.918;12.530;2023-04-01T14:00:35;1.10;;;1.00;;
13425;SDS011;6785;57.918;12.530;2023-04-01T14:06:19;0.73;;;0.73;;
13425;SDS011;6785;57.918;12.530;2023-04-01T14:11:53;1.80;;;0.80;;
13425;SDS011;6785;57.918;12.530;2023-04-01T14:14:32;1.07;;;0.90;;
13425;SDS011;6785;57.918;12.530;2023-04-01T14:17:09;1.03;;;0.93;;
13425;SDS011;6785;57.918;12.530;2023-04-01T14:19:50;0.93;;;0.93;;
13425;SDS011;6785;57.918;12.530;2023-04-01T14:22:29;2.73;;;2.00;;
13425;SDS011;6785;57.918;12.530;2023-04-01T14:25:10;2.00;;;1.70;;
13425;SDS011;6785;57.918;12.530;2023-04-01T14:28:12;0.90;;;0.90;;
13425;SDS011;6785;57.918;12.530;2023-04-01T14:30:50;1.00;;;0.90;;
13425;SDS011;6785;57.918;12.530;2023-04-01T14:33:41;2.30;;;1.93;;
13425;SDS011;6785;57.918;12.530;2023-04-01T14:39:22;1.93;;;1.60;;
13425;SDS011;6785;57.918;12.530;2023-04-01T14:42:03;3.27;;;1.77;;
13425;SDS011;6785;57.918;12.530;2023-04-01T14:47:49;2.80;;;1.17;;
13425;SDS011;6785;57.918;12.530;2023-04-01T14:50:20;1.97;;;1.40;;
13425;SDS011;6785;57.918;12.530;2023-04-01T14:52:55;2.30;;;1.47;;
13425;SDS011;6785;57.918;12.530;2023-04-01T14:55:27;3.50;;;1.40;;
13425;SDS011;6785;57.918;12.530;2023-04-01T14:57:58;1.77;;;0.97;;
13425;SDS011;6785;57.918;12.530;2023-04-01T15:00:33;1.20;;;1.10;;
13425;SDS011;6785;57.918;12.530;2023-04-01T15:03:14;1.43;;;1.20;;
13425;SDS011;6785;57.918;12.530;2023-04-01T15:05:47;1.90;;;1.40;;
13425;SDS011;6785;57.918;12.530;2023-04-01T15:08:19;3.57;;;1.40;;
13425;SDS011;6785;57.918;12.530;2023-04-01T15:10:52;1.50;;;1.10;;
13425;SDS011;6785;57.918;12.530;2023-04-01T15:13:33;1.07;;;0.97;;
13425;SDS011;6785;57.918;12.530;2023-04-01T15:16:14;1.80;;;0.80;;
13425;SDS011;6785;57.918;12.530;2023-04-01T15:18:49;1.33;;;0.73;;
13425;SDS011;6785;57.918;12.530;2023-04-01T15:21:37;0.60;;;0.60;;
13425;SDS011;6785;57.918;12.530;2023-04-01T15:24:28;0.83;;;0.83;;
13425;SDS011;6785;57.918;12.530;2023-04-01T15:27:09;0.80;;;0.80;;
13425;SDS011;6785;57.918;12.530;2023-04-01T15:29:52;0.80;;;0.80;;
13425;SDS011;6785;57.918;12.530;2023-04-01T15:32:39;0.67;;;0.67;;
13425;SDS011;6785;57.918;12.530;2023-04-01T15:35:21;1.33;;;1.00;;
13425;SDS011;6785;57.918;12.530;2023-04-01T15:38:02;0.57;;;0.57;;
13425;SDS011;6785;57.918;12.530;2023-04-01T15:40:38;0.60;;;0.60;;
13425;SDS011;6785;57.918;12.530;2023-04-01T15:43:15;0.93;;;0.67;;
13425;SDS011;6785;57.918;12.530;2023-04-01T15:45:54;0.53;;;0.53;;
13425;SDS011;6785;57.918;12.530;2023-04-01T15:48:31;1.17;;;0.73;;
13425;SDS011;6785;57.918;12.530;2023-04-01T15:51:18;1.40;;;0.80;;
13425;SDS011;6785;57.918;12.530;2023-04-01T15:53:56;1.77;;;1.17;;
13425;SDS011;6785;57.918;12.530;2023-04-01T15:56:54;2.00;;;0.70;;
13425;SDS011;6785;57.918;12.530;2023-04-01T15:59:47;1.43;;;0.80;;
13425;SDS011;6785;57.918;12.530;2023-04-01T16:02:49;0.70;;;0.70;;
13425;SDS011;6785;57.918;12.530;2023-04-01T16:05:44;4.00;;;1.30;;
13425;SDS011;6785;57.918;12.530;2023-04-01T16:11:18;0.80;;;0.80;;
13425;SDS011;6785;57.918;12.530;2023-04-01T16:13:58;0.60;;;0.60;;
13425;SDS011;6785;57.918;12.530;2023-04-01T16:16:36;0.83;;;0.80;;
13425;SDS011;6785;57.918;12.530;2023-04-01T16:19:23;0.83;;;0.80;;
13425;SDS011;6785;57.918;12.530;2023-04-01T16:22:00;1.00;;;0.80;;
13425;SDS011;6785;57.918;12.530;2023-04-01T16:24:34;0.70;;;0.70;;
13425;SDS011;6785;57.918;12.530;2023-04-01T16:27:08;2.23;;;0.90;;
13425;SDS011;6785;57.918;12.530;2023-04-01T16:29:43;0.80;;;0.80;;
13425;SDS011;6785;57.918;12.530;2023-04-01T16:32:16;0.80;;;0.80;;
13425;SDS011;6785;57.918;12.530;2023-04-01T16:34:47;1.47;;;0.90;;
13425;SDS011;6785;57.918;12.530;2023-04-01T16:37:28;1.03;;;0.90;;
13425;SDS011;6785;57.918;12.530;2023-04-01T16:40:09;3.33;;;0.87;;
13425;SDS011;6785;57.918;12.530;2023-04-01T16:42:43;4.00;;;1.03;;
13425;SDS011;6785;57.918;12.530;2023-04-01T16:45:19;1.17;;;1.00;;
13425;SDS011;6785;57.918;12.530;2023-04-01T16:48:00;0.70;;;0.70;;
13425;SDS011;6785;57.918;12.530;2023-04-01T16:50:39;0.77;;;0.77;;
13425;SDS011;6785;57.918;12.530;2023-04-01T16:53:14;0.90;;;0.90;;
13425;SDS011;6785;57.918;12.530;2023-04-01T16:55:46;2.10;;;1.37;;
13425;SDS011;6785;57.918;12.530;2023-04-01T16:58:19;1.60;;;1.20;;
13425;SDS011;6785;57.918;12.530;2023-04-01T17:00:53;1.40;;;1.30;;
13425;SDS011;6785;57.918;12.530;2023-04-01T17:03:28;0.93;;;0.83;;
13425;SDS011;6785;57.918;12.530;2023-04-01T17:06:02;1.20;;;1.10;;
13425;SDS011;6785;57.918;12.530;2023-04-01T17:08:40;1.00;;;0.90;;
13425;SDS011;6785;57.918;12.530;2023-04-01T17:11:26;1.17;;;1.07;;
13425;SDS011;6785;57.918;12.530;2023-04-01T17:14:00;1.00;;;0.80;;
13425;SDS011;6785;57.918;12.530;2023-04-01T17:19:42;1.10;;;1.00;;
13425;SDS011;6785;57.918;12.530;2023-04-01T17:22:19;1.10;;;1.00;;
13425;SDS011;6785;57.918;12.530;2023-04-01T17:24:58;1.30;;;0.90;;
13425;SDS011;6785;57.918;12.530;2023-04-01T17:27:37;0.90;;;0.90;;